TAF KBTV
AMD KBTV 081900Z 0819/0918 00000KT 1SM -SN BR OVC015 FM090300 33003KT 2SM -SN BR OVC008 FM090900 31005KT P6SM VCSH SCT008 OVC013 FM091500 31007KT P6SM BKN028=
METAR KBTV
WC KBTV
WS KBTV
WV KBTV